Centenario Blu — 3FXD7 — position and weather

sailwx.info

Track history (hours):
 
Tides and Currents Weather Stations Pressure Air Temp Water Temp Dewpoint Dewpoint Depression Visibility Wind Speed Wind Dir Waves Ship Positions

Centenario Blu

Last reported at 2017-Aug-17 15:53 UTC. Time now 2017-Aug-18 17:57 UTC.
Position N 26°17' W 079°15'.

Length 190 m; draft 10.6 m.

Type: Cargo ship. MMSI: 356832000.

Date/timePositionNaut miles runAvg speedWind from/ knotsBaromVisibWave heightAir tempDewpointWater temp
2017-Aug-17 15:53N 26°17' W 079°15'512.9
2017-Aug-17 15:30N 26°15' W 079°20'713.3
2017-Aug-17 15:00N 26°12' W 079°26'713.6
2017-Aug-17 14:30N 26°07' W 079°31'714.6
2017-Aug-17 14:00N 25°59' W 079°33'714.8
2017-Aug-17 13:30N 25°52' W 079°33'714.8
2017-Aug-17 13:00N 25°45' W 079°34'714.8
2017-Aug-17 12:30N 25°37' W 079°34'714.7
2017-Aug-17 12:00N 25°30' W 079°35'714.4
2017-Aug-17 11:30N 25°23' W 079°36'  
2017-Aug-13 08:39N 30°08' W 091°01'0 0.0
2017-Aug-13 08:30N 30°08' W 091°01'  
2017-Aug-09 00:35N 29°56' W 090°22'  
Track history (hours):
 
Tides and Currents Weather Stations Pressure Air Temp Water Temp Dewpoint Dewpoint Depression Visibility Wind Speed Wind Dir Waves Ship Positions

Centenario Blu

Last reported at 2017-Aug-17 15:53 UTC. Time now 2017-Aug-18 17:57 UTC.
Position N 26°17' W 079°15'.

Length 190 m; draft 10.6 m.

Type: Cargo ship. MMSI: 356832000.

Date/timePositionNaut miles runAvg speedWind from/ knotsBaromVisibWave heightAir tempDewpointWater temp
2017-Aug-17 15:53N 26°17' W 079°15'512.9
2017-Aug-17 15:30N 26°15' W 079°20'713.3
2017-Aug-17 15:00N 26°12' W 079°26'713.6
2017-Aug-17 14:30N 26°07' W 079°31'714.6
2017-Aug-17 14:00N 25°59' W 079°33'714.8
2017-Aug-17 13:30N 25°52' W 079°33'714.8
2017-Aug-17 13:00N 25°45' W 079°34'714.8
2017-Aug-17 12:30N 25°37' W 079°34'714.7
2017-Aug-17 12:00N 25°30' W 079°35'714.4
2017-Aug-17 11:30N 25°23' W 079°36'  
2017-Aug-13 08:39N 30°08' W 091°01'0 0.0
2017-Aug-13 08:30N 30°08' W 091°01'  
2017-Aug-09 00:35N 29°56' W 090°22'  

Dump ship's entire track history